SPH2351 RPMD-RPLC
Flight info
| Callsign | SPH2351 |
|---|---|
| Flight time | N/A |
| Altitude | 38000 |
| Route | JOFER3R JOFER W8 MCT W11 MIA DCT RAYAT RAYAT5R |
| Aircraft | A20N/M-V/N |
Departure
| Time | N/A |
|---|---|
| Airport | Francisco Bangoy International Airport (RPMD) |
Arrival
| Time | 2026-04-30 20:57 |
|---|---|
| Airport | Clark International Airport / Clark Air Base (RPLC) |
| Time | Latitude | Longitude | Altitude | Speed | Heading |
|---|---|---|---|---|---|
| 2026-04-30 20:27 | 13.69538 | 121.60636 | 33964 ft | 465 kts | 322° |
| 2026-04-30 20:27 | 13.74853 | 121.56824 | 32413 ft | 466 kts | 322° |
| 2026-04-30 20:28 | 13.80187 | 121.52997 | 30900 ft | 467 kts | 322° |
| 2026-04-30 20:28 | 13.85507 | 121.49180 | 29524 ft | 463 kts | 323° |
| 2026-04-30 20:29 | 13.90734 | 121.45427 | 28250 ft | 454 kts | 323° |
| 2026-04-30 20:30 | 13.98417 | 121.39902 | 26397 ft | 444 kts | 323° |
| 2026-04-30 20:30 | 14.05898 | 121.34518 | 24643 ft | 435 kts | 323° |
| 2026-04-30 20:31 | 14.13272 | 121.29206 | 22899 ft | 427 kts | 324° |
| 2026-04-30 20:32 | 14.20415 | 121.24054 | 21207 ft | 414 kts | 324° |
| 2026-04-30 20:32 | 14.25097 | 121.20677 | 20110 ft | 407 kts | 325° |
| 2026-04-30 20:33 | 14.27408 | 121.19010 | 19567 ft | 404 kts | 325° |
| 2026-04-30 20:33 | 14.31976 | 121.15718 | 18539 ft | 397 kts | 325° |
| 2026-04-30 20:33 | 14.34222 | 121.14101 | 18247 ft | 387 kts | 325° |
| 2026-04-30 20:34 | 14.37780 | 121.11541 | 18006 ft | 364 kts | 325° |
| 2026-04-30 20:34 | 14.41768 | 121.08671 | 17713 ft | 333 kts | 326° |
| 2026-04-30 20:35 | 14.43623 | 121.07336 | 17553 ft | 315 kts | 326° |
| 2026-04-30 20:35 | 14.45373 | 121.06076 | 17406 ft | 298 kts | 326° |
| 2026-04-30 20:35 | 14.48637 | 121.03724 | 16702 ft | 281 kts | 326° |
| 2026-04-30 20:36 | 14.50222 | 121.02607 | 16207 ft | 278 kts | 330° |
| 2026-04-30 20:36 | 14.51943 | 121.01719 | 15725 ft | 274 kts | 341° |
| 2026-04-30 20:36 | 14.55547 | 121.00533 | 14784 ft | 269 kts | 344° |
| 2026-04-30 20:37 | 14.57330 | 120.99965 | 14323 ft | 267 kts | 344° |
| 2026-04-30 20:37 | 14.59093 | 120.99393 | 13878 ft | 264 kts | 343° |
| 2026-04-30 20:37 | 14.60842 | 120.98817 | 13392 ft | 263 kts | 343° |
| 2026-04-30 20:37 | 14.62579 | 120.98240 | 12870 ft | 262 kts | 343° |
| 2026-04-30 20:38 | 14.64282 | 120.97670 | 12366 ft | 261 kts | 343° |
| 2026-04-30 20:38 | 14.66028 | 120.97083 | 11868 ft | 259 kts | 344° |
| 2026-04-30 20:38 | 14.67721 | 120.96514 | 11396 ft | 258 kts | 344° |
| 2026-04-30 20:39 | 14.71124 | 120.95370 | 10469 ft | 256 kts | 344° |
| 2026-04-30 20:39 | 14.72816 | 120.94801 | 10029 ft | 255 kts | 345° |
| 2026-04-30 20:39 | 14.74504 | 120.94236 | 9568 ft | 254 kts | 345° |
| 2026-04-30 20:40 | 14.77840 | 120.93120 | 8689 ft | 250 kts | 345° |
| 2026-04-30 20:40 | 14.79485 | 120.92571 | 8246 ft | 248 kts | 345° |
| 2026-04-30 20:40 | 14.81121 | 120.92025 | 7822 ft | 246 kts | 345° |
| 2026-04-30 20:41 | 14.84353 | 120.90945 | 7004 ft | 242 kts | 345° |
| 2026-04-30 20:41 | 14.85950 | 120.90411 | 6615 ft | 240 kts | 345° |
| 2026-04-30 20:41 | 14.87531 | 120.89882 | 6217 ft | 238 kts | 345° |
| 2026-04-30 20:41 | 14.89101 | 120.89355 | 5794 ft | 237 kts | 345° |
| 2026-04-30 20:42 | 14.90668 | 120.88827 | 5385 ft | 236 kts | 345° |
| 2026-04-30 20:42 | 14.92224 | 120.88299 | 4985 ft | 235 kts | 346° |
| 2026-04-30 20:42 | 14.94410 | 120.87558 | 4418 ft | 232 kts | 346° |
| 2026-04-30 20:43 | 14.95478 | 120.87198 | 4159 ft | 230 kts | 346° |
| 2026-04-30 20:43 | 14.96971 | 120.86698 | 3997 ft | 224 kts | 346° |
| 2026-04-30 20:43 | 14.98389 | 120.86219 | 3987 ft | 203 kts | 347° |
| 2026-04-30 20:44 | 15.01133 | 120.85305 | 3997 ft | 208 kts | 347° |
| 2026-04-30 20:44 | 15.02512 | 120.84846 | 3996 ft | 208 kts | 347° |
| 2026-04-30 20:44 | 15.05267 | 120.83927 | 3993 ft | 208 kts | 347° |
| 2026-04-30 20:45 | 15.08015 | 120.83007 | 3994 ft | 207 kts | 347° |
| 2026-04-30 20:45 | 15.09347 | 120.82429 | 3989 ft | 211 kts | 326° |
| 2026-04-30 20:45 | 15.10255 | 120.81211 | 3998 ft | 219 kts | 290° |
| 2026-04-30 20:46 | 15.08539 | 120.77252 | 3995 ft | 215 kts | 215° |
| 2026-04-30 20:46 | 15.07377 | 120.76285 | 3993 ft | 215 kts | 217° |
| 2026-04-30 20:47 | 15.05206 | 120.74179 | 4014 ft | 203 kts | 224° |
| 2026-04-30 20:47 | 15.04326 | 120.73184 | 3984 ft | 177 kts | 226° |
| 2026-04-30 20:48 | 15.02773 | 120.71339 | 3994 ft | 169 kts | 226° |
| 2026-04-30 20:48 | 15.02000 | 120.70419 | 3994 ft | 169 kts | 226° |
| 2026-04-30 20:48 | 15.01348 | 120.69401 | 3995 ft | 172 kts | 245° |
| 2026-04-30 20:48 | 15.00886 | 120.68258 | 3991 ft | 171 kts | 246° |
| 2026-04-30 20:49 | 15.00416 | 120.67123 | 3995 ft | 172 kts | 244° |
| 2026-04-30 20:49 | 14.99918 | 120.66000 | 3994 ft | 172 kts | 242° |
| 2026-04-30 20:49 | 14.99400 | 120.64889 | 3986 ft | 170 kts | 241° |
| 2026-04-30 20:50 | 14.98363 | 120.62723 | 3478 ft | 168 kts | 240° |
| 2026-04-30 20:50 | 14.97843 | 120.61644 | 3175 ft | 167 kts | 240° |
| 2026-04-30 20:50 | 14.97335 | 120.60582 | 2953 ft | 165 kts | 241° |
| 2026-04-30 20:50 | 14.97108 | 120.59424 | 3003 ft | 170 kts | 281° |
| 2026-04-30 20:51 | 14.97616 | 120.58370 | 3015 ft | 165 kts | 312° |
| 2026-04-30 20:51 | 14.99193 | 120.56709 | 3001 ft | 162 kts | 320° |
| 2026-04-30 20:51 | 15.00005 | 120.55879 | 3004 ft | 165 kts | 319° |
| 2026-04-30 20:52 | 15.00796 | 120.55030 | 3000 ft | 163 kts | 317° |
| 2026-04-30 20:52 | 15.01570 | 120.54166 | 2998 ft | 164 kts | 316° |
| 2026-04-30 20:52 | 15.03101 | 120.52414 | 2999 ft | 163 kts | 315° |
| 2026-04-30 20:53 | 15.03900 | 120.51595 | 2996 ft | 159 kts | 331° |
| 2026-04-30 20:53 | 15.04910 | 120.51224 | 2999 ft | 153 kts | 1° |
| 2026-04-30 20:53 | 15.05944 | 120.51306 | 2952 ft | 146 kts | 18° |
| 2026-04-30 20:54 | 15.07819 | 120.51936 | 2699 ft | 134 kts | 27° |
| 2026-04-30 20:54 | 15.08690 | 120.52290 | 2535 ft | 135 kts | 25° |
| 2026-04-30 20:54 | 15.09561 | 120.52637 | 2348 ft | 133 kts | 25° |
| 2026-04-30 20:55 | 15.11304 | 120.53332 | 1959 ft | 133 kts | 25° |
| 2026-04-30 20:55 | 15.12161 | 120.53674 | 1764 ft | 132 kts | 25° |
| 2026-04-30 20:55 | 15.13004 | 120.54012 | 1569 ft | 134 kts | 25° |
| 2026-04-30 20:56 | 15.14759 | 120.54716 | 1325 ft | 137 kts | 24° |
| 2026-04-30 20:56 | 15.15665 | 120.55059 | 983 ft | 137 kts | 21° |
| 2026-04-30 20:56 | 15.17410 | 120.55762 | 561 ft | 135 kts | 23° |
| 2026-04-30 20:57 | 15.18231 | 120.56099 | 446 ft | 109 kts | 21° |
| 2026-04-30 20:57 | 15.18653 | 120.56265 | 444 ft | 21 kts | 20° |
| 2026-04-30 20:57 | 15.18975 | 120.56387 | 430 ft | 44 kts | 22° |
| 2026-04-30 20:58 | 15.19125 | 120.56384 | 437 ft | 10 kts | 292° |
| 2026-04-30 20:58 | 15.19132 | 120.56363 | 434 ft | 0 kts | 289° |
| 2026-04-30 21:00 | 15.19174 | 120.56253 | 433 ft | 14 kts | 292° |
| 2026-04-30 21:00 | 15.19317 | 120.56229 | 436 ft | 15 kts | 18° |
| 2026-04-30 21:01 | 15.19449 | 120.56183 | 432 ft | 9 kts | 290° |
| 2026-04-30 21:01 | 15.19474 | 120.56112 | 423 ft | 11 kts | 290° |
| 2026-04-30 21:01 | 15.19473 | 120.56032 | 436 ft | 5 kts | 289° |
| 2026-04-30 21:02 | 15.19483 | 120.56005 | 433 ft | 1 kts | 291° |
| 2026-04-30 21:02 | 15.19488 | 120.55990 | 431 ft | 0 kts | 291° |